sensor_id;sensor_type;location;lat;lon;timestamp;P1;durP1;ratioP1;P2;durP2;ratioP2
41572;SDS011;27286;47.870;19.006;2023-03-16T00:00:49;4.80;;;0.65;;
41572;SDS011;27286;47.870;19.006;2023-03-16T00:03:15;5.00;;;0.77;;
41572;SDS011;27286;47.870;19.006;2023-03-16T00:05:50;6.15;;;1.45;;
41572;SDS011;27286;47.870;19.006;2023-03-16T00:08:17;5.05;;;0.60;;
41572;SDS011;27286;47.870;19.006;2023-03-16T00:10:42;6.38;;;1.30;;
41572;SDS011;27286;47.870;19.006;2023-03-16T00:13:17;5.63;;;1.73;;
41572;SDS011;27286;47.870;19.006;2023-03-16T00:18:28;6.90;;;1.20;;
41572;SDS011;27286;47.870;19.006;2023-03-16T00:20:57;4.70;;;1.38;;
41572;SDS011;27286;47.870;19.006;2023-03-16T00:23:26;3.30;;;0.73;;
41572;SDS011;27286;47.870;19.006;2023-03-16T00:25:56;4.68;;;0.90;;
41572;SDS011;27286;47.870;19.006;2023-03-16T00:28:23;8.27;;;0.90;;
41572;SDS011;27286;47.870;19.006;2023-03-16T00:30:50;4.35;;;0.80;;
41572;SDS011;27286;47.870;19.006;2023-03-16T00:33:16;4.63;;;0.77;;
41572;SDS011;27286;47.870;19.006;2023-03-16T00:35:44;5.85;;;1.10;;
41572;SDS011;27286;47.870;19.006;2023-03-16T00:38:17;8.82;;;1.08;;
41572;SDS011;27286;47.870;19.006;2023-03-16T00:40:43;4.43;;;0.68;;
41572;SDS011;27286;47.870;19.006;2023-03-16T00:43:09;4.53;;;0.82;;
41572;SDS011;27286;47.870;19.006;2023-03-16T00:45:35;5.05;;;1.17;;
41572;SDS011;27286;47.870;19.006;2023-03-16T00:48:00;7.60;;;1.30;;
41572;SDS011;27286;47.870;19.006;2023-03-16T00:50:26;9.35;;;1.83;;
41572;SDS011;27286;47.870;19.006;2023-03-16T00:52:52;4.50;;;0.90;;
41572;SDS011;27286;47.870;19.006;2023-03-16T00:55:18;2.90;;;0.82;;
41572;SDS011;27286;47.870;19.006;2023-03-16T00:57:46;3.03;;;0.60;;
41572;SDS011;27286;47.870;19.006;2023-03-16T01:00:12;6.30;;;0.95;;
41572;SDS011;27286;47.870;19.006;2023-03-16T01:02:41;5.45;;;0.82;;
41572;SDS011;27286;47.870;19.006;2023-03-16T01:05:09;4.05;;;1.38;;
41572;SDS011;27286;47.870;19.006;2023-03-16T01:07:36;5.32;;;0.77;;
41572;SDS011;27286;47.870;19.006;2023-03-16T01:10:03;4.15;;;1.02;;
41572;SDS011;27286;47.870;19.006;2023-03-16T01:12:28;8.63;;;0.98;;
41572;SDS011;27286;47.870;19.006;2023-03-16T01:14:54;4.25;;;1.10;;
41572;SDS011;27286;47.870;19.006;2023-03-16T01:17:19;7.15;;;1.42;;
41572;SDS011;27286;47.870;19.006;2023-03-16T01:19:47;8.50;;;1.02;;
41572;SDS011;27286;47.870;19.006;2023-03-16T01:22:13;5.95;;;1.05;;
41572;SDS011;27286;47.870;19.006;2023-03-16T01:24:39;6.18;;;1.08;;
41572;SDS011;27286;47.870;19.006;2023-03-16T01:27:06;5.82;;;1.10;;
41572;SDS011;27286;47.870;19.006;2023-03-16T01:29:32;3.65;;;0.80;;
41572;SDS011;27286;47.870;19.006;2023-03-16T01:31:59;5.47;;;0.90;;
41572;SDS011;27286;47.870;19.006;2023-03-16T01:34:25;3.42;;;1.02;;
41572;SDS011;27286;47.870;19.006;2023-03-16T01:36:51;3.95;;;0.93;;
41572;SDS011;27286;47.870;19.006;2023-03-16T01:39:17;5.63;;;0.80;;
41572;SDS011;27286;47.870;19.006;2023-03-16T01:41:43;4.75;;;1.27;;
41572;SDS011;27286;47.870;19.006;2023-03-16T01:44:13;8.52;;;1.17;;
41572;SDS011;27286;47.870;19.006;2023-03-16T01:46:44;6.43;;;1.35;;
41572;SDS011;27286;47.870;19.006;2023-03-16T01:49:23;5.65;;;0.90;;
41572;SDS011;27286;47.870;19.006;2023-03-16T01:52:26;5.30;;;1.10;;
41572;SDS011;27286;47.870;19.006;2023-03-16T01:54:56;4.72;;;1.17;;
41572;SDS011;27286;47.870;19.006;2023-03-16T01:57:26;7.10;;;1.25;;
41572;SDS011;27286;47.870;19.006;2023-03-16T01:59:58;5.10;;;1.05;;
41572;SDS011;27286;47.870;19.006;2023-03-16T02:02:33;9.07;;;1.30;;
41572;SDS011;27286;47.870;19.006;2023-03-16T02:05:07;5.85;;;0.80;;
41572;SDS011;27286;47.870;19.006;2023-03-16T02:07:39;5.70;;;1.52;;
41572;SDS011;27286;47.870;19.006;2023-03-16T02:10:08;8.25;;;1.52;;
41572;SDS011;27286;47.870;19.006;2023-03-16T02:12:36;5.57;;;1.40;;
41572;SDS011;27286;47.870;19.006;2023-03-16T02:15:01;7.95;;;1.65;;
41572;SDS011;27286;47.870;19.006;2023-03-16T02:17:28;9.35;;;1.85;;
41572;SDS011;27286;47.870;19.006;2023-03-16T02:20:02;5.85;;;1.42;;
41572;SDS011;27286;47.870;19.006;2023-03-16T02:22:51;3.30;;;1.35;;
41572;SDS011;27286;47.870;19.006;2023-03-16T02:25:39;5.18;;;0.95;;
41572;SDS011;27286;47.870;19.006;2023-03-16T02:28:18;11.90;;;2.50;;
41572;SDS011;27286;47.870;19.006;2023-03-16T02:30:50;13.48;;;2.10;;
41572;SDS011;27286;47.870;19.006;2023-03-16T02:33:16;15.70;;;4.05;;
41572;SDS011;27286;47.870;19.006;2023-03-16T02:35:43;11.00;;;2.08;;
41572;SDS011;27286;47.870;19.006;2023-03-16T02:38:09;6.22;;;1.58;;
41572;SDS011;27286;47.870;19.006;2023-03-16T02:40:34;10.85;;;2.83;;
41572;SDS011;27286;47.870;19.006;2023-03-16T02:43:02;9.77;;;2.05;;
41572;SDS011;27286;47.870;19.006;2023-03-16T02:45:53;7.00;;;1.98;;
41572;SDS011;27286;47.870;19.006;2023-03-16T02:48:26;7.32;;;1.90;;
41572;SDS011;27286;47.870;19.006;2023-03-16T02:50:56;8.88;;;1.85;;
41572;SDS011;27286;47.870;19.006;2023-03-16T02:53:22;6.55;;;1.73;;
41572;SDS011;27286;47.870;19.006;2023-03-16T02:55:47;7.15;;;1.88;;
41572;SDS011;27286;47.870;19.006;2023-03-16T02:58:14;7.07;;;2.00;;
41572;SDS011;27286;47.870;19.006;2023-03-16T03:00:40;7.82;;;2.90;;
41572;SDS011;27286;47.870;19.006;2023-03-16T03:03:09;11.38;;;3.80;;
41572;SDS011;27286;47.870;19.006;2023-03-16T03:05:35;7.22;;;2.53;;
41572;SDS011;27286;47.870;19.006;2023-03-16T03:08:02;10.13;;;2.90;;
41572;SDS011;27286;47.870;19.006;2023-03-16T03:10:28;14.13;;;4.28;;
41572;SDS011;27286;47.870;19.006;2023-03-16T03:12:53;14.25;;;4.45;;
41572;SDS011;27286;47.870;19.006;2023-03-16T03:15:19;18.83;;;5.57;;
41572;SDS011;27286;47.870;19.006;2023-03-16T03:17:45;17.50;;;5.93;;
41572;SDS011;27286;47.870;19.006;2023-03-16T03:20:11;13.63;;;3.95;;
41572;SDS011;27286;47.870;19.006;2023-03-16T03:22:42;12.18;;;3.75;;
41572;SDS011;27286;47.870;19.006;2023-03-16T03:25:09;11.82;;;3.63;;
41572;SDS011;27286;47.870;19.006;2023-03-16T03:27:35;13.98;;;4.05;;
41572;SDS011;27286;47.870;19.006;2023-03-16T03:30:01;6.82;;;2.00;;
41572;SDS011;27286;47.870;19.006;2023-03-16T03:32:27;10.02;;;2.85;;
41572;SDS011;27286;47.870;19.006;2023-03-16T03:34:52;8.93;;;2.85;;
41572;SDS011;27286;47.870;19.006;2023-03-16T03:37:18;11.07;;;3.95;;
41572;SDS011;27286;47.870;19.006;2023-03-16T03:39:43;9.55;;;1.90;;
41572;SDS011;27286;47.870;19.006;2023-03-16T03:42:09;9.48;;;2.90;;
41572;SDS011;27286;47.870;19.006;2023-03-16T03:44:35;9.98;;;2.67;;
41572;SDS011;27286;47.870;19.006;2023-03-16T03:47:01;8.57;;;3.63;;
41572;SDS011;27286;47.870;19.006;2023-03-16T03:49:27;12.18;;;2.58;;
41572;SDS011;27286;47.870;19.006;2023-03-16T03:51:53;5.97;;;2.03;;
41572;SDS011;27286;47.870;19.006;2023-03-16T03:54:19;9.88;;;2.55;;
41572;SDS011;27286;47.870;19.006;2023-03-16T03:56:45;6.05;;;2.25;;
41572;SDS011;27286;47.870;19.006;2023-03-16T03:59:11;10.10;;;2.83;;
41572;SDS011;27286;47.870;19.006;2023-03-16T04:01:36;9.27;;;2.85;;
41572;SDS011;27286;47.870;19.006;2023-03-16T04:04:02;10.55;;;2.30;;
41572;SDS011;27286;47.870;19.006;2023-03-16T04:06:27;13.65;;;3.50;;
41572;SDS011;27286;47.870;19.006;2023-03-16T04:08:53;8.73;;;2.47;;
41572;SDS011;27286;47.870;19.006;2023-03-16T04:11:19;8.98;;;2.13;;
41572;SDS011;27286;47.870;19.006;2023-03-16T04:13:45;7.57;;;3.08;;
41572;SDS011;27286;47.870;19.006;2023-03-16T04:16:11;10.73;;;3.05;;
41572;SDS011;27286;47.870;19.006;2023-03-16T04:18:40;11.75;;;2.47;;
41572;SDS011;27286;47.870;19.006;2023-03-16T04:21:06;6.80;;;1.92;;
41572;SDS011;27286;47.870;19.006;2023-03-16T04:23:36;6.88;;;2.28;;
41572;SDS011;27286;47.870;19.006;2023-03-16T04:26:02;7.57;;;2.35;;
41572;SDS011;27286;47.870;19.006;2023-03-16T04:28:30;8.45;;;2.55;;
41572;SDS011;27286;47.870;19.006;2023-03-16T04:31:06;8.10;;;2.28;;
41572;SDS011;27286;47.870;19.006;2023-03-16T04:33:34;5.85;;;2.25;;
41572;SDS011;27286;47.870;19.006;2023-03-16T04:36:01;7.20;;;2.53;;
41572;SDS011;27286;47.870;19.006;2023-03-16T04:38:30;6.85;;;2.83;;
41572;SDS011;27286;47.870;19.006;2023-03-16T04:41:00;7.25;;;3.13;;
41572;SDS011;27286;47.870;19.006;2023-03-16T04:43:27;11.13;;;2.85;;
41572;SDS011;27286;47.870;19.006;2023-03-16T04:45:53;10.55;;;3.05;;
41572;SDS011;27286;47.870;19.006;2023-03-16T04:48:18;6.30;;;2.60;;
41572;SDS011;27286;47.870;19.006;2023-03-16T04:50:44;14.18;;;3.45;;
41572;SDS011;27286;47.870;19.006;2023-03-16T04:53:09;7.22;;;2.78;;
41572;SDS011;27286;47.870;19.006;2023-03-16T04:55:35;5.85;;;2.42;;
41572;SDS011;27286;47.870;19.006;2023-03-16T04:58:00;8.85;;;3.67;;
41572;SDS011;27286;47.870;19.006;2023-03-16T05:00:26;11.88;;;3.67;;
41572;SDS011;27286;47.870;19.006;2023-03-16T05:02:52;10.85;;;3.40;;
41572;SDS011;27286;47.870;19.006;2023-03-16T05:05:18;8.32;;;2.83;;
41572;SDS011;27286;47.870;19.006;2023-03-16T05:07:45;12.23;;;3.72;;
41572;SDS011;27286;47.870;19.006;2023-03-16T05:10:12;9.15;;;3.42;;
41572;SDS011;27286;47.870;19.006;2023-03-16T05:12:39;11.57;;;4.00;;
41572;SDS011;27286;47.870;19.006;2023-03-16T05:15:05;14.32;;;3.40;;
41572;SDS011;27286;47.870;19.006;2023-03-16T05:17:31;7.97;;;3.13;;
41572;SDS011;27286;47.870;19.006;2023-03-16T05:19:57;11.55;;;3.67;;
41572;SDS011;27286;47.870;19.006;2023-03-16T05:22:22;8.05;;;3.63;;
41572;SDS011;27286;47.870;19.006;2023-03-16T05:24:48;10.98;;;3.50;;
41572;SDS011;27286;47.870;19.006;2023-03-16T05:27:14;7.45;;;3.95;;
41572;SDS011;27286;47.870;19.006;2023-03-16T05:29:39;16.42;;;6.57;;
41572;SDS011;27286;47.870;19.006;2023-03-16T05:32:09;18.83;;;6.22;;
41572;SDS011;27286;47.870;19.006;2023-03-16T05:34:35;11.60;;;5.65;;
41572;SDS011;27286;47.870;19.006;2023-03-16T05:37:01;12.70;;;5.80;;
41572;SDS011;27286;47.870;19.006;2023-03-16T05:39:26;16.77;;;5.68;;
41572;SDS011;27286;47.870;19.006;2023-03-16T05:41:52;13.25;;;5.40;;
41572;SDS011;27286;47.870;19.006;2023-03-16T05:44:19;17.23;;;5.13;;
41572;SDS011;27286;47.870;19.006;2023-03-16T05:46:44;9.52;;;4.03;;
41572;SDS011;27286;47.870;19.006;2023-03-16T05:49:09;13.75;;;4.90;;
41572;SDS011;27286;47.870;19.006;2023-03-16T05:51:37;49.22;;;24.42;;
41572;SDS011;27286;47.870;19.006;2023-03-16T05:54:02;43.67;;;23.70;;
41572;SDS011;27286;47.870;19.006;2023-03-16T05:56:28;9.98;;;4.22;;
41572;SDS011;27286;47.870;19.006;2023-03-16T05:58:55;5.97;;;1.75;;
41572;SDS011;27286;47.870;19.006;2023-03-16T06:01:20;5.80;;;1.45;;
41572;SDS011;27286;47.870;19.006;2023-03-16T06:03:47;5.32;;;1.35;;
41572;SDS011;27286;47.870;19.006;2023-03-16T06:06:17;6.40;;;1.80;;
41572;SDS011;27286;47.870;19.006;2023-03-16T06:08:44;7.60;;;1.58;;
41572;SDS011;27286;47.870;19.006;2023-03-16T06:11:10;9.82;;;1.58;;
41572;SDS011;27286;47.870;19.006;2023-03-16T06:13:36;7.20;;;1.65;;
41572;SDS011;27286;47.870;19.006;2023-03-16T06:16:02;8.02;;;1.45;;
41572;SDS011;27286;47.870;19.006;2023-03-16T06:18:28;5.28;;;1.88;;
41572;SDS011;27286;47.870;19.006;2023-03-16T06:20:53;9.35;;;1.45;;
41572;SDS011;27286;47.870;19.006;2023-03-16T06:23:19;6.72;;;1.30;;
41572;SDS011;27286;47.870;19.006;2023-03-16T06:25:48;7.05;;;1.63;;
41572;SDS011;27286;47.870;19.006;2023-03-16T06:28:14;4.35;;;0.90;;
41572;SDS011;27286;47.870;19.006;2023-03-16T06:30:40;5.15;;;1.40;;
41572;SDS011;27286;47.870;19.006;2023-03-16T06:33:06;6.55;;;1.50;;
41572;SDS011;27286;47.870;19.006;2023-03-16T06:35:32;5.60;;;1.05;;
41572;SDS011;27286;47.870;19.006;2023-03-16T06:37:57;6.72;;;1.63;;
41572;SDS011;27286;47.870;19.006;2023-03-16T06:40:23;8.98;;;1.70;;
41572;SDS011;27286;47.870;19.006;2023-03-16T06:42:48;5.88;;;1.23;;
41572;SDS011;27286;47.870;19.006;2023-03-16T06:45:14;6.53;;;1.77;;
41572;SDS011;27286;47.870;19.006;2023-03-16T06:47:41;5.68;;;1.20;;
41572;SDS011;27286;47.870;19.006;2023-03-16T06:50:07;6.22;;;1.35;;
41572;SDS011;27286;47.870;19.006;2023-03-16T06:52:34;5.07;;;1.30;;
41572;SDS011;27286;47.870;19.006;2023-03-16T06:54:59;5.57;;;1.00;;
41572;SDS011;27286;47.870;19.006;2023-03-16T06:57:25;3.95;;;1.05;;
41572;SDS011;27286;47.870;19.006;2023-03-16T06:59:50;6.13;;;1.25;;
41572;SDS011;27286;47.870;19.006;2023-03-16T07:02:16;4.35;;;1.25;;
41572;SDS011;27286;47.870;19.006;2023-03-16T07:04:43;6.03;;;1.20;;
41572;SDS011;27286;47.870;19.006;2023-03-16T07:07:09;3.60;;;1.00;;
41572;SDS011;27286;47.870;19.006;2023-03-16T07:09:36;8.35;;;1.77;;
41572;SDS011;27286;47.870;19.006;2023-03-16T07:12:02;4.32;;;1.42;;
41572;SDS011;27286;47.870;19.006;2023-03-16T07:14:28;4.63;;;1.10;;
41572;SDS011;27286;47.870;19.006;2023-03-16T07:16:53;3.67;;;0.82;;
41572;SDS011;27286;47.870;19.006;2023-03-16T07:19:19;2.50;;;0.77;;
41572;SDS011;27286;47.870;19.006;2023-03-16T07:21:44;3.97;;;1.30;;
41572;SDS011;27286;47.870;19.006;2023-03-16T07:24:10;3.63;;;1.08;;
41572;SDS011;27286;47.870;19.006;2023-03-16T07:26:36;4.25;;;1.23;;
41572;SDS011;27286;47.870;19.006;2023-03-16T07:29:03;4.53;;;1.10;;
41572;SDS011;27286;47.870;19.006;2023-03-16T07:31:30;5.15;;;1.00;;
41572;SDS011;27286;47.870;19.006;2023-03-16T07:33:56;4.63;;;0.93;;
41572;SDS011;27286;47.870;19.006;2023-03-16T07:36:22;6.05;;;1.23;;
41572;SDS011;27286;47.870;19.006;2023-03-16T07:38:47;4.97;;;0.93;;
41572;SDS011;27286;47.870;19.006;2023-03-16T07:41:13;4.18;;;1.13;;
41572;SDS011;27286;47.870;19.006;2023-03-16T07:43:38;3.30;;;1.25;;
41572;SDS011;27286;47.870;19.006;2023-03-16T07:46:04;3.13;;;0.88;;
41572;SDS011;27286;47.870;19.006;2023-03-16T07:48:30;3.67;;;1.10;;
41572;SDS011;27286;47.870;19.006;2023-03-16T07:50:56;5.43;;;1.20;;
41572;SDS011;27286;47.870;19.006;2023-03-16T07:53:22;7.20;;;1.95;;
41572;SDS011;27286;47.870;19.006;2023-03-16T07:55:47;8.35;;;1.20;;
41572;SDS011;27286;47.870;19.006;2023-03-16T07:58:13;4.03;;;1.27;;
41572;SDS011;27286;47.870;19.006;2023-03-16T08:00:39;5.85;;;1.15;;
41572;SDS011;27286;47.870;19.006;2023-03-16T08:03:04;7.20;;;1.08;;
41572;SDS011;27286;47.870;19.006;2023-03-16T08:05:30;3.70;;;1.45;;
41572;SDS011;27286;47.870;19.006;2023-03-16T08:07:58;4.95;;;1.30;;
41572;SDS011;27286;47.870;19.006;2023-03-16T08:10:26;5.57;;;1.42;;
41572;SDS011;27286;47.870;19.006;2023-03-16T08:12:51;4.95;;;1.08;;
41572;SDS011;27286;47.870;19.006;2023-03-16T08:15:17;4.20;;;1.10;;
41572;SDS011;27286;47.870;19.006;2023-03-16T08:17:43;4.47;;;1.08;;
41572;SDS011;27286;47.870;19.006;2023-03-16T08:20:11;4.00;;;1.42;;
41572;SDS011;27286;47.870;19.006;2023-03-16T08:22:39;7.35;;;1.27;;
41572;SDS011;27286;47.870;19.006;2023-03-16T08:25:10;4.82;;;1.45;;
41572;SDS011;27286;47.870;19.006;2023-03-16T08:27:36;6.63;;;1.80;;
41572;SDS011;27286;47.870;19.006;2023-03-16T08:30:05;2.85;;;1.00;;
41572;SDS011;27286;47.870;19.006;2023-03-16T08:32:35;4.88;;;1.35;;
41572;SDS011;27286;47.870;19.006;2023-03-16T08:35:03;5.68;;;1.67;;
41572;SDS011;27286;47.870;19.006;2023-03-16T08:37:30;3.53;;;1.08;;
41572;SDS011;27286;47.870;19.006;2023-03-16T08:39:55;4.43;;;1.55;;
41572;SDS011;27286;47.870;19.006;2023-03-16T08:42:22;3.60;;;1.27;;
41572;SDS011;27286;47.870;19.006;2023-03-16T08:44:47;7.13;;;1.10;;
41572;SDS011;27286;47.870;19.006;2023-03-16T08:47:13;5.43;;;1.25;;
41572;SDS011;27286;47.870;19.006;2023-03-16T08:49:39;4.05;;;1.17;;
41572;SDS011;27286;47.870;19.006;2023-03-16T08:52:05;4.15;;;1.30;;
41572;SDS011;27286;47.870;19.006;2023-03-16T08:54:34;3.25;;;0.95;;
41572;SDS011;27286;47.870;19.006;2023-03-16T08:57:00;3.10;;;1.15;;
41572;SDS011;27286;47.870;19.006;2023-03-16T08:59:25;3.55;;;1.13;;
41572;SDS011;27286;47.870;19.006;2023-03-16T09:01:51;4.75;;;1.20;;
41572;SDS011;27286;47.870;19.006;2023-03-16T09:04:16;4.68;;;1.85;;
41572;SDS011;27286;47.870;19.006;2023-03-16T09:06:42;6.05;;;1.58;;
41572;SDS011;27286;47.870;19.006;2023-03-16T09:09:07;4.07;;;1.10;;
41572;SDS011;27286;47.870;19.006;2023-03-16T09:11:33;3.97;;;1.33;;
41572;SDS011;27286;47.870;19.006;2023-03-16T09:13:59;4.45;;;1.23;;
41572;SDS011;27286;47.870;19.006;2023-03-16T09:16:25;3.75;;;1.52;;
41572;SDS011;27286;47.870;19.006;2023-03-16T09:18:52;4.85;;;1.65;;
41572;SDS011;27286;47.870;19.006;2023-03-16T09:21:18;6.47;;;1.52;;
41572;SDS011;27286;47.870;19.006;2023-03-16T09:23:43;4.72;;;1.50;;
41572;SDS011;27286;47.870;19.006;2023-03-16T09:26:09;4.13;;;1.02;;
41572;SDS011;27286;47.870;19.006;2023-03-16T09:28:36;3.17;;;1.15;;
41572;SDS011;27286;47.870;19.006;2023-03-16T09:31:03;3.00;;;1.27;;
41572;SDS011;27286;47.870;19.006;2023-03-16T09:33:29;3.63;;;1.20;;
41572;SDS011;27286;47.870;19.006;2023-03-16T09:35:58;4.45;;;1.35;;
41572;SDS011;27286;47.870;19.006;2023-03-16T09:38:24;3.75;;;0.90;;
41572;SDS011;27286;47.870;19.006;2023-03-16T09:41:01;3.85;;;1.50;;
41572;SDS011;27286;47.870;19.006;2023-03-16T09:46:10;3.28;;;1.00;;
41572;SDS011;27286;47.870;19.006;2023-03-16T09:48:41;3.97;;;0.98;;
41572;SDS011;27286;47.870;19.006;2023-03-16T09:51:10;2.05;;;0.73;;
41572;SDS011;27286;47.870;19.006;2023-03-16T09:53:43;3.20;;;1.10;;
41572;SDS011;27286;47.870;19.006;2023-03-16T09:56:19;3.80;;;0.90;;
41572;SDS011;27286;47.870;19.006;2023-03-16T09:58:51;4.28;;;1.00;;
41572;SDS011;27286;47.870;19.006;2023-03-16T10:04:05;2.33;;;0.57;;
41572;SDS011;27286;47.870;19.006;2023-03-16T10:06:43;2.90;;;0.60;;
41572;SDS011;27286;47.870;19.006;2023-03-16T10:12:32;3.85;;;0.60;;
41572;SDS011;27286;47.870;19.006;2023-03-16T10:17:41;2.88;;;0.52;;
41572;SDS011;27286;47.870;19.006;2023-03-16T10:20:18;2.70;;;0.57;;
41572;SDS011;27286;47.870;19.006;2023-03-16T10:22:48;1.65;;;0.50;;
41572;SDS011;27286;47.870;19.006;2023-03-16T10:27:47;2.47;;;0.40;;
41572;SDS011;27286;47.870;19.006;2023-03-16T10:30:21;1.63;;;0.60;;
41572;SDS011;27286;47.870;19.006;2023-03-16T10:32:59;2.25;;;0.75;;
41572;SDS011;27286;47.870;19.006;2023-03-16T10:40:55;2.25;;;0.52;;
41572;SDS011;27286;47.870;19.006;2023-03-16T10:43:25;1.45;;;0.55;;
41572;SDS011;27286;47.870;19.006;2023-03-16T10:45:56;2.28;;;0.50;;
41572;SDS011;27286;47.870;19.006;2023-03-16T10:48:23;2.53;;;0.52;;
41572;SDS011;27286;47.870;19.006;2023-03-16T10:50:51;1.70;;;0.50;;
41572;SDS011;27286;47.870;19.006;2023-03-16T10:53:28;3.08;;;0.50;;
41572;SDS011;27286;47.870;19.006;2023-03-16T10:55:56;2.88;;;0.60;;
41572;SDS011;27286;47.870;19.006;2023-03-16T10:58:23;2.35;;;0.63;;
41572;SDS011;27286;47.870;19.006;2023-03-16T11:00:51;2.15;;;0.47;;
41572;SDS011;27286;47.870;19.006;2023-03-16T11:05:55;2.40;;;0.52;;
41572;SDS011;27286;47.870;19.006;2023-03-16T11:08:22;3.78;;;0.43;;
41572;SDS011;27286;47.870;19.006;2023-03-16T11:10:57;2.38;;;0.57;;
41572;SDS011;27286;47.870;19.006;2023-03-16T11:13:33;2.42;;;0.60;;
41572;SDS011;27286;47.870;19.006;2023-03-16T11:32:15;5.40;;;0.57;;
41572;SDS011;27286;47.870;19.006;2023-03-16T11:34:44;2.63;;;0.75;;
41572;SDS011;27286;47.870;19.006;2023-03-16T11:42:53;3.58;;;0.95;;
41572;SDS011;27286;47.870;19.006;2023-03-16T11:59:09;2.42;;;0.80;;
41572;SDS011;27286;47.870;19.006;2023-03-16T12:10:30;2.35;;;0.70;;
41572;SDS011;27286;47.870;19.006;2023-03-16T12:18:57;5.63;;;1.25;;
41572;SDS011;27286;47.870;19.006;2023-03-16T12:24:24;2.03;;;0.73;;
41572;SDS011;27286;47.870;19.006;2023-03-16T12:26:52;3.60;;;0.73;;
41572;SDS011;27286;47.870;19.006;2023-03-16T12:29:21;3.78;;;0.65;;
41572;SDS011;27286;47.870;19.006;2023-03-16T12:32:27;2.42;;;0.63;;
41572;SDS011;27286;47.870;19.006;2023-03-16T12:35:31;5.00;;;0.77;;
41572;SDS011;27286;47.870;19.006;2023-03-16T12:46:56;2.78;;;0.45;;
41572;SDS011;27286;47.870;19.006;2023-03-16T12:49:43;2.80;;;0.60;;
41572;SDS011;27286;47.870;19.006;2023-03-16T12:52:10;1.95;;;0.40;;
41572;SDS011;27286;47.870;19.006;2023-03-16T12:57:43;2.70;;;0.40;;
41572;SDS011;27286;47.870;19.006;2023-03-16T13:00:10;1.83;;;0.40;;
41572;SDS011;27286;47.870;19.006;2023-03-16T13:02:41;5.80;;;0.45;;
41572;SDS011;27286;47.870;19.006;2023-03-16T13:05:25;2.08;;;0.52;;
41572;SDS011;27286;47.870;19.006;2023-03-16T13:08:09;5.32;;;0.70;;
41572;SDS011;27286;47.870;19.006;2023-03-16T13:10:37;6.70;;;2.67;;
41572;SDS011;27286;47.870;19.006;2023-03-16T13:13:09;2.20;;;0.60;;
41572;SDS011;27286;47.870;19.006;2023-03-16T13:15:37;2.97;;;0.50;;
41572;SDS011;27286;47.870;19.006;2023-03-16T13:18:05;4.32;;;0.75;;
41572;SDS011;27286;47.870;19.006;2023-03-16T13:28:56;3.75;;;0.50;;
41572;SDS011;27286;47.870;19.006;2023-03-16T13:31:23;4.10;;;0.65;;
41572;SDS011;27286;47.870;19.006;2023-03-16T13:33:53;2.15;;;0.40;;
41572;SDS011;27286;47.870;19.006;2023-03-16T13:36:21;1.70;;;0.32;;
41572;SDS011;27286;47.870;19.006;2023-03-16T13:39:02;2.15;;;0.20;;
41572;SDS011;27286;47.870;19.006;2023-03-16T13:41:29;1.80;;;0.30;;
41572;SDS011;27286;47.870;19.006;2023-03-16T13:43:54;6.47;;;0.80;;
41572;SDS011;27286;47.870;19.006;2023-03-16T13:46:21;2.75;;;0.40;;
41572;SDS011;27286;47.870;19.006;2023-03-16T13:48:53;1.65;;;0.35;;
41572;SDS011;27286;47.870;19.006;2023-03-16T13:51:21;2.55;;;0.30;;
41572;SDS011;27286;47.870;19.006;2023-03-16T13:53:46;1.80;;;0.30;;
41572;SDS011;27286;47.870;19.006;2023-03-16T13:56:15;4.47;;;0.30;;
41572;SDS011;27286;47.870;19.006;2023-03-16T13:58:44;13.63;;;0.60;;
41572;SDS011;27286;47.870;19.006;2023-03-16T14:01:16;1.65;;;0.30;;
41572;SDS011;27286;47.870;19.006;2023-03-16T14:03:49;3.40;;;0.25;;
41572;SDS011;27286;47.870;19.006;2023-03-16T14:06:20;2.35;;;0.50;;
41572;SDS011;27286;47.870;19.006;2023-03-16T14:08:50;11.50;;;0.50;;
41572;SDS011;27286;47.870;19.006;2023-03-16T14:11:18;4.28;;;0.80;;
41572;SDS011;27286;47.870;19.006;2023-03-16T14:13:48;2.88;;;0.32;;
41572;SDS011;27286;47.870;19.006;2023-03-16T14:16:15;2.38;;;0.30;;
41572;SDS011;27286;47.870;19.006;2023-03-16T14:18:44;1.38;;;0.30;;
41572;SDS011;27286;47.870;19.006;2023-03-16T14:21:16;10.43;;;0.90;;
41572;SDS011;27286;47.870;19.006;2023-03-16T14:23:46;3.40;;;0.80;;
41572;SDS011;27286;47.870;19.006;2023-03-16T14:26:17;4.18;;;0.70;;
41572;SDS011;27286;47.870;19.006;2023-03-16T14:29:00;4.18;;;0.50;;
41572;SDS011;27286;47.870;19.006;2023-03-16T14:31:31;2.88;;;0.40;;
41572;SDS011;27286;47.870;19.006;2023-03-16T14:33:59;3.13;;;0.30;;
41572;SDS011;27286;47.870;19.006;2023-03-16T14:36:32;2.75;;;0.40;;
41572;SDS011;27286;47.870;19.006;2023-03-16T14:39:08;3.88;;;0.38;;
41572;SDS011;27286;47.870;19.006;2023-03-16T14:41:35;2.60;;;0.38;;
41572;SDS011;27286;47.870;19.006;2023-03-16T14:44:03;2.03;;;0.38;;
41572;SDS011;27286;47.870;19.006;2023-03-16T14:46:32;3.78;;;0.40;;
41572;SDS011;27286;47.870;19.006;2023-03-16T14:49:20;1.95;;;0.30;;
41572;SDS011;27286;47.870;19.006;2023-03-16T14:51:50;3.90;;;0.40;;
41572;SDS011;27286;47.870;19.006;2023-03-16T14:54:20;2.00;;;0.30;;
41572;SDS011;27286;47.870;19.006;2023-03-16T14:56:50;2.28;;;0.30;;
41572;SDS011;27286;47.870;19.006;2023-03-16T14:59:18;6.50;;;1.00;;
41572;SDS011;27286;47.870;19.006;2023-03-16T15:01:45;3.55;;;0.63;;
41572;SDS011;27286;47.870;19.006;2023-03-16T15:04:12;3.65;;;1.08;;
41572;SDS011;27286;47.870;19.006;2023-03-16T15:06:39;5.13;;;0.45;;
41572;SDS011;27286;47.870;19.006;2023-03-16T15:09:05;5.55;;;0.80;;
41572;SDS011;27286;47.870;19.006;2023-03-16T15:11:32;4.50;;;0.50;;
41572;SDS011;27286;47.870;19.006;2023-03-16T15:13:58;4.13;;;0.70;;
41572;SDS011;27286;47.870;19.006;2023-03-16T15:16:38;2.72;;;0.22;;
41572;SDS011;27286;47.870;19.006;2023-03-16T15:19:04;4.80;;;0.40;;
41572;SDS011;27286;47.870;19.006;2023-03-16T15:21:30;3.65;;;0.63;;
41572;SDS011;27286;47.870;19.006;2023-03-16T15:23:55;1.95;;;0.30;;
41572;SDS011;27286;47.870;19.006;2023-03-16T15:26:24;2.42;;;0.50;;
41572;SDS011;27286;47.870;19.006;2023-03-16T15:28:52;4.72;;;0.70;;
41572;SDS011;27286;47.870;19.006;2023-03-16T15:31:19;3.05;;;0.50;;
41572;SDS011;27286;47.870;19.006;2023-03-16T15:33:45;1.52;;;0.20;;
41572;SDS011;27286;47.870;19.006;2023-03-16T15:36:15;3.42;;;0.40;;
41572;SDS011;27286;47.870;19.006;2023-03-16T15:38:46;2.13;;;0.30;;
41572;SDS011;27286;47.870;19.006;2023-03-16T15:41:13;2.30;;;0.17;;
41572;SDS011;27286;47.870;19.006;2023-03-16T15:43:40;7.18;;;0.57;;
41572;SDS011;27286;47.870;19.006;2023-03-16T15:46:06;3.22;;;0.60;;
41572;SDS011;27286;47.870;19.006;2023-03-16T15:48:31;6.20;;;0.55;;
41572;SDS011;27286;47.870;19.006;2023-03-16T15:51:07;2.78;;;0.50;;
41572;SDS011;27286;47.870;19.006;2023-03-16T15:53:46;3.70;;;1.08;;
41572;SDS011;27286;47.870;19.006;2023-03-16T15:56:17;2.72;;;0.60;;
41572;SDS011;27286;47.870;19.006;2023-03-16T15:58:47;3.85;;;0.45;;
41572;SDS011;27286;47.870;19.006;2023-03-16T16:01:22;1.95;;;0.38;;
41572;SDS011;27286;47.870;19.006;2023-03-16T16:03:52;11.52;;;0.60;;
41572;SDS011;27286;47.870;19.006;2023-03-16T16:06:19;1.95;;;0.40;;
41572;SDS011;27286;47.870;19.006;2023-03-16T16:08:46;2.50;;;0.45;;
41572;SDS011;27286;47.870;19.006;2023-03-16T16:11:13;3.15;;;0.50;;
41572;SDS011;27286;47.870;19.006;2023-03-16T16:13:40;3.03;;;0.50;;
41572;SDS011;27286;47.870;19.006;2023-03-16T16:16:17;2.95;;;0.43;;
41572;SDS011;27286;47.870;19.006;2023-03-16T16:18:43;2.45;;;0.60;;